Terminal Aerodrome Forecast
Issued by NWS

Home | Current Version | Previous Version | Graphics & Text | Print | Product List | Glossary On
Versions: 1 2 3 4 5 6 7 8 9 10 11 12 13 14
000
FTUS43 KOAX 220500
TAFCDR
TAF
KCDR 220520Z 2206/2306 16012KT P6SM FEW250
     FM221900 21015G25KT P6SM VCTS SCT080CB BKN150
     FM230000 17011KT P6SM SCT150=

USA.gov is the U.S. government's official web portal to all federal, state and local government web resources and services.